Saturday, August 18, 2018, 2:50 AM GMT
Back to Local

CWIP, Pointe Noire , Que.

Location: , , Canada Lat: 50.167
Local Time: 2:50 AM GMT ( 2:50 GMT) Lon: -66.433
Time Zone: GMT Elev: 82 ft

Show me the last for .
Show Coded

Time T Td Feel RH Dir Speed Gust Alt SLP Vis Weather Sky Remarks
2018-08-18 02:00 58 - - 0 60° 7 - - - 0 None
2018-08-18 01:00 58 - - 0 110° 2 - - - 0 None
2018-08-18 00:00 62 - - 0 90° 5 - - - 0 None
2018-08-17 23:00 64 - - 0 40° 5 - - - 0 None
2018-08-17 22:00 66 - - 0 190° 2 - - - 0 None
2018-08-17 21:00 64 - - 0 140° 7 - - - 0 None
2018-08-17 20:00 64 - - 0 120° 5 - - - 0 Peak wind: 20 mph (18 kts) from 150° at 07 min
2018-08-17 19:00 67 - - 0 180° 10 21 - - 0 Peak wind: 21 mph (19 kts) from 170° at 48 min
2018-08-17 18:00 67 - - 0 180° 7 - - - 0 Peak wind: 23 mph (20 kts) from 220° at 26 min
2018-08-17 17:00 65 - - 0 160° 8 - - - 0 None
2018-08-17 14:00 60 - - 0 100° 3 - - - 0 None
2018-08-17 13:00 58 - - 0 20° 2 - - - 0 None
2018-08-17 12:00 54 - - 0 10° 1 - - - 0 None
2018-08-17 11:00 53 - - 0 340° 1 - - - 0 None
2018-08-17 10:00 51 - - 0 - Calm - - - 0 None
2018-08-17 09:00 51 - - 0 300° 2 - - - 0 None
2018-08-17 08:00 51 - - 0 300° 1 - - - 0 None
2018-08-17 07:00 52 - - 0 - Calm - - - 0 None
2018-08-17 06:00 54 - - 0 270° 3 - - - 0 None
2018-08-17 05:00 54 - - 0 280° 3 - - - 0 None
2018-08-17 04:00 53 - - 0 300° 2 - - - 0 None
2018-08-17 03:00 53 - - 0 40° 1 - - - 0 None

Support USWX by starting your Amazon purchase here.